Time;durP1;ratioP1;P1;durP2;ratioP2;P2;SDS_P1;SDS_P2;PMS_P1;PMS_P2;Temp;Humidity;BMP_temperature;BMP_pressure;BME280_temperature;BME280_humidity;BME280_pressure;Samples;Min_cycle;Max_cycle;Signal;HPM_P1;HPM_P2
2022/03/30 00:00:10;;;;;;;16.83;8.40;;;;;;;13.94;57.64;98983.84;4994869;28;20246;-70
2022/03/30 00:02:36;;;;;;;14.33;8.43;;;;;;;13.90;57.72;98982.66;4995053;28;20273;-69
2022/03/30 00:05:03;;;;;;;13.87;8.37;;;;;;;13.88;57.62;98984.72;4995311;28;20202;-69
2022/03/30 00:07:32;;;;;;;13.63;7.60;;;;;;;13.87;56.82;98980.44;4995033;28;20258;-70
2022/03/30 00:09:59;;;;;;;12.50;8.50;;;;;;;13.86;57.32;98978.81;4995409;28;20337;-70
2022/03/30 00:12:26;;;;;;;20.70;9.00;;;;;;;13.84;56.78;98983.56;4994729;28;20242;-70
2022/03/30 00:14:53;;;;;;;15.70;8.37;;;;;;;13.81;56.76;98981.34;4994498;28;20744;-69
2022/03/30 00:17:19;;;;;;;19.77;9.47;;;;;;;13.79;56.87;98978.09;4994921;28;20245;-70
2022/03/30 00:19:46;;;;;;;17.73;8.43;;;;;;;13.66;57.45;98980.97;4994498;28;20659;-70
2022/03/30 00:22:13;;;;;;;15.80;9.13;;;;;;;13.58;57.01;98980.47;4993918;28;20203;-69
2022/03/30 00:24:43;;;;;;;17.83;9.07;;;;;;;13.52;57.75;98984.06;4993938;28;20570;-69
2022/03/30 00:27:10;;;;;;;11.73;8.60;;;;;;;13.34;58.04;98995.59;4994235;28;20203;-69
2022/03/30 00:29:37;;;;;;;19.23;9.37;;;;;;;13.30;58.45;98998.91;4993320;28;20202;-69
2022/03/30 00:32:05;;;;;;;18.67;9.57;;;;;;;13.27;58.64;98992.19;4993902;28;20198;-69
2022/03/30 00:34:32;;;;;;;17.73;9.60;;;;;;;13.24;58.18;98989.16;4994056;28;20198;-68
2022/03/30 00:36:59;;;;;;;23.30;10.47;;;;;;;13.21;58.26;98982.44;4994362;28;20202;-69
2022/03/30 00:39:25;;;;;;;16.27;10.30;;;;;;;13.17;58.94;98978.59;4994120;28;20199;-69
2022/03/30 00:41:54;;;;;;;21.93;10.17;;;;;;;13.16;57.88;98976.97;4994244;28;20226;-69
2022/03/30 00:44:20;;;;;;;19.57;10.30;;;;;;;13.11;57.82;98966.13;4994103;28;20669;-69
2022/03/30 00:46:47;;;;;;;18.20;11.27;;;;;;;13.14;57.75;98979.03;4994071;28;20202;-69
2022/03/30 00:49:14;;;;;;;19.60;11.27;;;;;;;13.13;57.77;98982.75;4994676;28;20199;-68
2022/03/30 00:51:41;;;;;;;11.90;9.93;;;;;;;13.06;58.33;98976.66;4993930;28;20214;-68
2022/03/30 00:54:08;;;;;;;14.33;10.27;;;;;;;13.04;58.29;98973.44;4994072;28;20225;-69
2022/03/30 00:56:37;;;;;;;22.20;11.83;;;;;;;13.05;58.35;98974.22;4994050;28;20190;-69
2022/03/30 00:59:06;;;;;;;24.27;14.70;;;;;;;12.88;58.27;98949.19;4993647;28;20740;-69
2022/03/30 01:01:34;;;;;;;17.50;10.70;;;;;;;12.96;58.55;98968.38;4993586;28;20229;-69
2022/03/30 01:04:03;;;;;;;20.53;10.93;;;;;;;12.92;59.10;98969.84;4993277;28;20198;-69
2022/03/30 01:06:30;;;;;;;24.17;10.77;;;;;;;12.88;59.27;98968.66;4993366;28;20223;-69
2022/03/30 01:08:57;;;;;;;14.10;10.47;;;;;;;12.84;59.16;98959.50;4993361;28;20281;-69
2022/03/30 01:11:24;;;;;;;16.27;11.03;;;;;;;12.72;59.47;98960.44;4993568;28;20238;-69
2022/03/30 01:13:51;;;;;;;20.00;11.60;;;;;;;12.58;60.47;98966.97;4993526;28;20252;-69
2022/03/30 01:16:20;;;;;;;18.17;12.27;;;;;;;12.49;60.29;98969.09;4993605;28;20291;-69
2022/03/30 01:18:47;;;;;;;21.97;11.43;;;;;;;12.33;60.92;98959.00;4993076;28;20202;-69
2022/03/30 01:21:17;;;;;;;16.97;10.73;;;;;;;12.23;61.10;98958.72;4993312;28;20222;-69
2022/03/30 01:23:43;;;;;;;27.07;10.90;;;;;;;12.14;61.80;98957.38;4993436;28;20626;-70
2022/03/30 01:26:10;;;;;;;22.47;11.63;;;;;;;12.11;62.46;98965.78;4993391;28;20201;-69
2022/03/30 01:28:37;;;;;;;18.20;10.33;;;;;;;12.04;62.74;98965.03;4993459;28;20267;-70
2022/03/30 01:33:49;;;;;;;19.73;10.40;;;;;;;12.05;62.55;98961.31;4992938;28;20192;-69
2022/03/30 01:36:18;;;;;;;22.90;11.13;;;;;;;12.05;62.90;98965.84;4993182;28;20198;-69
2022/03/30 01:38:45;;;;;;;26.27;11.60;;;;;;;12.03;62.75;98966.06;4992925;28;20557;-69
2022/03/30 01:41:12;;;;;;;25.23;12.23;;;;;;;11.95;63.20;98974.31;4993216;28;20283;-68
2022/03/30 01:43:39;;;;;;;28.67;11.73;;;;;;;11.90;63.37;98968.00;4993392;28;20263;-68
2022/03/30 01:46:06;;;;;;;15.53;10.60;;;;;;;11.91;63.38;98981.09;4993028;28;20279;-68
2022/03/30 01:48:33;;;;;;;24.87;11.77;;;;;;;11.87;63.58;98985.22;4993091;28;20576;-69
2022/03/30 01:51:01;;;;;;;21.33;11.40;;;;;;;11.88;63.41;98980.75;4993187;28;20202;-68
2022/03/30 01:53:29;;;;;;;28.40;12.77;;;;;;;11.88;63.46;98975.41;4992559;28;20712;-68
2022/03/30 01:55:55;;;;;;;22.70;11.83;;;;;;;11.74;64.18;98979.19;4992809;28;20199;-68
2022/03/30 01:58:22;;;;;;;23.77;12.27;;;;;;;11.64;64.60;98977.00;4991805;28;20251;-68
2022/03/30 02:00:49;;;;;;;25.43;13.97;;;;;;;11.51;64.56;98974.41;4992602;28;20303;-68
2022/03/30 02:03:16;;;;;;;28.63;13.90;;;;;;;11.41;65.21;98981.22;4992670;28;20252;-68
2022/03/30 02:05:42;;;;;;;27.37;14.97;;;;;;;11.33;65.40;98979.63;4992939;28;20200;-68
2022/03/30 02:08:09;;;;;;;25.23;13.37;;;;;;;11.26;66.14;98976.19;4992529;28;20197;-69
2022/03/30 02:10:38;;;;;;;22.43;13.40;;;;;;;11.28;66.12;98978.63;4992877;28;20664;-69
2022/03/30 02:13:06;;;;;;;21.23;13.17;;;;;;;11.27;66.02;98977.81;4992674;28;20204;-69
2022/03/30 02:15:32;;;;;;;20.27;13.17;;;;;;;11.28;65.88;98978.63;4992674;28;20296;-69
2022/03/30 02:17:59;;;;;;;29.37;14.00;;;;;;;11.19;66.33;98979.91;4992683;28;20191;-69
2022/03/30 02:20:26;;;;;;;20.57;13.83;;;;;;;11.12;66.04;98979.94;4992612;28;20212;-69
2022/03/30 02:22:53;;;;;;;33.97;14.13;;;;;;;11.14;66.36;98982.41;4992658;28;20252;-69
2022/03/30 02:25:20;;;;;;;25.17;13.43;;;;;;;11.15;66.75;98986.69;4992253;28;20255;-69
2022/03/30 02:27:48;;;;;;;26.87;14.23;;;;;;;11.19;66.50;98985.22;4992216;28;20197;-69
2022/03/30 02:30:14;;;;;;;26.47;13.70;;;;;;;11.23;65.78;98981.91;4992562;28;20263;-69
2022/03/30 02:32:44;;;;;;;27.93;14.10;;;;;;;11.25;66.33;98979.06;4992378;28;20196;-69
2022/03/30 02:35:12;;;;;;;28.70;14.80;;;;;;;11.23;66.33;98986.44;4992325;28;20575;-69
2022/03/30 02:37:39;;;;;;;23.83;14.07;;;;;;;11.13;66.47;98986.06;4992514;28;20239;-68
2022/03/30 02:40:06;;;;;;;23.90;14.80;;;;;;;11.08;66.73;98989.38;4992086;28;20199;-69
2022/03/30 02:42:33;;;;;;;25.87;14.57;;;;;;;11.00;66.88;98986.94;4992110;28;20221;-69
2022/03/30 02:45:01;;;;;;;30.73;15.63;;;;;;;11.04;66.74;98988.97;4992202;28;20202;-69
2022/03/30 02:50:13;;;;;;;31.33;16.60;;;;;;;11.01;66.92;98993.88;4992063;28;20189;-69
2022/03/30 02:52:39;;;;;;;31.90;15.63;;;;;;;11.01;67.18;98991.22;4991869;28;20232;-69
2022/03/30 02:55:07;;;;;;;34.70;15.37;;;;;;;10.95;66.93;98984.91;4992104;28;20746;-69
2022/03/30 02:57:34;;;;;;;38.40;16.00;;;;;;;10.96;67.07;98985.75;4992073;28;20209;-69
2022/03/30 03:00:04;;;;;;;29.27;15.20;;;;;;;10.96;67.05;98980.44;4992103;28;20665;-69
2022/03/30 03:02:31;;;;;;;30.30;15.10;;;;;;;10.96;67.36;98975.13;4991808;28;20212;-68
2022/03/30 03:04:57;;;;;;;28.10;15.40;;;;;;;10.92;67.18;98980.00;4992258;28;20251;-68
2022/03/30 03:07:24;;;;;;;30.47;15.17;;;;;;;10.89;67.72;98985.78;4992294;28;20264;-69
2022/03/30 03:09:52;;;;;;;33.10;16.17;;;;;;;10.81;67.63;98982.53;4993724;28;20229;-68
2022/03/30 03:12:19;;;;;;;34.13;15.30;;;;;;;10.77;67.69;98987.44;4996017;28;20200;-68
2022/03/30 03:14:46;;;;;;;31.93;16.70;;;;;;;10.74;68.26;98995.00;4996063;28;20223;-68
2022/03/30 03:17:14;;;;;;;38.10;16.40;;;;;;;10.75;68.35;98991.34;4995697;28;20268;-68
2022/03/30 03:19:41;;;;;;;32.07;16.70;;;;;;;10.75;67.65;98989.47;4996228;28;20196;-68
2022/03/30 03:22:09;;;;;;;42.70;18.70;;;;;;;10.69;68.61;98989.50;4995750;28;20694;-68
2022/03/30 03:24:35;;;;;;;33.77;16.87;;;;;;;10.70;68.83;98985.81;4995234;28;20192;-68
2022/03/30 03:27:02;;;;;;;30.63;16.30;;;;;;;10.71;68.04;98984.81;4995419;28;20258;-68
2022/03/30 03:29:29;;;;;;;37.40;17.30;;;;;;;10.70;67.81;98985.81;4995013;28;20666;-69
2022/03/30 03:31:56;;;;;;;36.47;16.50;;;;;;;10.67;67.84;98981.75;4995671;28;20258;-69
2022/03/30 03:34:24;;;;;;;26.97;15.53;;;;;;;10.65;68.36;98985.63;4995715;28;20206;-68
2022/03/30 03:36:50;;;;;;;27.40;16.07;;;;;;;10.65;68.45;98982.97;4995436;28;20191;-68
2022/03/30 03:39:17;;;;;;;32.30;15.73;;;;;;;10.61;68.84;98982.59;4995115;28;20207;-69
2022/03/30 03:41:44;;;;;;;37.07;15.97;;;;;;;10.60;68.86;98988.94;4995228;28;20601;-68
2022/03/30 03:44:11;;;;;;;30.60;15.20;;;;;;;10.58;69.13;98993.63;4995118;28;20218;-69
2022/03/30 03:46:38;;;;;;;39.20;16.57;;;;;;;10.54;68.84;98986.28;4995408;28;20203;-69
2022/03/30 03:49:04;;;;;;;37.63;15.80;;;;;;;10.49;68.82;98989.56;4995343;28;20194;-70
2022/03/30 03:51:33;;;;;;;41.43;17.27;;;;;;;10.53;69.21;98992.59;4995634;28;20286;-69
2022/03/30 03:53:59;;;;;;;41.50;18.60;;;;;;;10.50;68.93;99001.00;4994726;28;20203;-69
2022/03/30 03:56:26;;;;;;;47.40;17.80;;;;;;;10.49;69.16;99002.00;4994483;28;20287;-69
2022/03/30 03:58:53;;;;;;;41.07;16.10;;;;;;;10.48;69.03;99003.88;4994275;28;20279;-69
2022/03/30 04:01:20;;;;;;;41.67;17.80;;;;;;;10.51;68.81;98994.66;4994570;28;20228;-69
2022/03/30 04:03:47;;;;;;;43.00;17.43;;;;;;;10.53;69.47;98997.91;4994181;28;20207;-68
2022/03/30 04:06:14;;;;;;;44.90;18.67;;;;;;;10.55;69.75;98999.34;4994773;28;20195;-68
2022/03/30 04:08:42;;;;;;;49.43;17.63;;;;;;;10.58;68.90;99000.78;4994487;28;20196;-67
2022/03/30 04:11:08;;;;;;;40.93;18.10;;;;;;;10.59;68.56;98999.75;4995291;28;20277;-67
2022/03/30 04:13:36;;;;;;;34.67;16.80;;;;;;;10.62;68.40;98996.69;4994628;28;20199;-67
2022/03/30 04:16:02;;;;;;;62.17;19.50;;;;;;;10.63;68.23;98995.66;4994181;28;20612;-67
2022/03/30 04:18:29;;;;;;;37.03;18.80;;;;;;;10.65;67.61;98998.91;4994862;28;20277;-67
2022/03/30 04:20:56;;;;;;;23.53;11.90;;;;;;;10.75;78.43;99000.09;4993689;28;20623;-71
2022/03/30 04:23:23;;;;;;;42.03;19.47;;;;;;;10.96;69.90;99007.00;4994780;28;20197;-74
2022/03/30 04:25:51;;;;;;;44.47;20.80;;;;;;;11.00;68.07;99008.22;4994685;28;20628;-73
2022/03/30 04:28:17;;;;;;;52.93;20.67;;;;;;;11.05;68.06;99005.72;4994193;28;20208;-74
2022/03/30 04:30:45;;;;;;;39.73;19.30;;;;;;;11.08;67.52;99000.00;4994651;28;20205;-73
2022/03/30 04:33:11;;;;;;;42.57;20.83;;;;;;;11.07;66.63;99002.88;4994082;28;20196;-73
2022/03/30 04:35:38;;;;;;;63.63;21.83;;;;;;;11.90;81.11;99015.91;4994186;28;20620;-76
2022/03/30 04:38:06;;;;;;;54.30;21.53;;;;;;;12.14;65.55;99015.94;4993574;28;20263;-76
2022/03/30 04:40:33;;;;;;;38.47;20.70;;;;;;;12.27;63.52;99034.47;4992862;28;20288;-77
2022/03/30 04:43:01;;;;;;;32.40;16.13;;;;;;;12.58;72.20;99007.72;4977684;28;20220;-74
2022/03/30 04:45:28;;;;;;;68.80;25.10;;;;;;;13.41;67.98;99033.69;4974054;28;20621;-74
2022/03/30 04:47:55;;;;;;;72.73;26.83;;;;;;;13.79;60.23;99038.66;4974346;28;20195;-74
2022/03/30 04:50:22;;;;;;;65.07;22.70;;;;;;;13.98;58.07;99034.91;4974660;28;20196;-73
2022/03/30 04:52:49;;;;;;;62.37;21.67;;;;;;;14.21;56.76;99041.13;4974037;28;20265;-73
2022/03/30 04:55:16;;;;;;;59.37;22.90;;;;;;;14.42;56.20;99048.59;4974136;28;20262;-74
2022/03/30 04:57:43;;;;;;;54.60;23.40;;;;;;;14.59;55.08;99054.88;4974473;28;20246;-74
2022/03/30 05:00:12;;;;;;;42.33;21.17;;;;;;;14.68;54.27;99041.97;4974015;28;20667;-73
2022/03/30 05:02:40;;;;;;;63.33;23.13;;;;;;;14.92;52.87;99048.94;4974136;28;20223;-73
2022/03/30 05:05:09;;;;;;;65.47;26.13;;;;;;;15.16;52.36;99056.69;4973480;28;20659;-73
2022/03/30 05:07:36;;;;;;;58.37;26.33;;;;;;;15.47;51.01;99058.16;4973893;28;20667;-73
2022/03/30 05:10:03;;;;;;;149.13;60.63;;;;;;;15.80;50.42;99053.72;4973512;28;20282;-72
2022/03/30 05:12:30;;;;;;;133.03;64.27;;;;;;;15.98;48.57;99056.19;4973921;28;20262;-72
2022/03/30 05:14:56;;;;;;;166.40;104.40;;;;;;;16.27;47.63;99053.44;4973708;28;20626;-72
2022/03/30 05:17:24;;;;;;;144.53;90.53;;;;;;;16.55;47.50;99056.09;4974033;28;20195;-72
2022/03/30 05:19:51;;;;;;;93.67;55.10;;;;;;;16.55;46.69;99062.28;4973663;28;20200;-73
2022/03/30 05:22:18;;;;;;;69.30;36.17;;;;;;;16.66;46.11;99047.94;4973569;28;20247;-73
2022/03/30 05:24:45;;;;;;;64.57;30.70;;;;;;;16.78;45.86;99042.50;4973923;28;20243;-73
2022/03/30 05:27:12;;;;;;;89.50;38.00;;;;;;;16.81;45.49;99050.03;4973646;28;20199;-73
2022/03/30 05:29:38;;;;;;;74.30;40.03;;;;;;;16.92;45.28;99046.44;4973766;28;20204;-72
2022/03/30 05:32:06;;;;;;;92.53;50.23;;;;;;;17.01;45.71;99044.94;4973740;28;20242;-72
2022/03/30 05:34:34;;;;;;;56.80;35.10;;;;;;;16.72;45.44;99041.63;4973395;28;20238;-72
2022/03/30 05:37:01;;;;;;;72.70;33.97;;;;;;;17.01;45.56;99047.63;4973879;28;20195;-72
2022/03/30 05:39:28;;;;;;;62.93;28.40;;;;;;;17.40;44.69;99051.91;4973451;28;20195;-73
2022/03/30 05:41:54;;;;;;;59.27;25.90;;;;;;;17.80;42.99;99055.88;4973138;28;20800;-72
2022/03/30 05:44:21;;;;;;;50.17;26.67;;;;;;;18.04;42.35;99054.53;4973290;28;20259;-73
2022/03/30 05:46:48;;;;;;;49.20;23.23;;;;;;;18.25;41.76;99058.22;4973224;28;20265;-73
2022/03/30 05:49:16;;;;;;;51.57;24.80;;;;;;;18.39;40.97;99054.06;4973613;28;20206;-72
2022/03/30 05:51:45;;;;;;;46.20;22.63;;;;;;;18.46;40.48;99060.03;4973469;28;20201;-72
2022/03/30 05:54:12;;;;;;;44.90;21.83;;;;;;;18.99;39.97;99059.88;4973214;28;20199;-73
2022/03/30 05:59:23;;;;;;;47.77;24.57;;;;;;;19.59;37.64;99063.69;4973518;28;20690;-72
2022/03/30 06:01:49;;;;;;;42.30;21.90;;;;;;;19.54;37.56;99062.84;4973367;28;20286;-73
2022/03/30 06:04:16;;;;;;;47.80;21.43;;;;;;;19.47;37.68;99052.31;4973654;28;20200;-73
2022/03/30 06:06:44;;;;;;;56.87;26.17;;;;;;;19.45;37.86;99050.97;4973291;28;20201;-73
2022/03/30 06:09:12;;;;;;;55.97;21.13;;;;;;;20.02;36.92;99046.28;4973197;28;20206;-73
2022/03/30 06:11:38;;;;;;;54.23;22.00;;;;;;;20.37;36.00;99051.72;4973378;28;20235;-73
2022/03/30 06:14:05;;;;;;;42.70;20.70;;;;;;;20.97;35.35;99040.88;4972885;28;20262;-73
2022/03/30 06:16:32;;;;;;;40.40;21.20;;;;;;;21.39;34.25;99052.09;4972999;28;20195;-72
2022/03/30 06:18:59;;;;;;;64.93;20.90;;;;;;;21.85;33.52;99047.31;4973359;28;20261;-73
2022/03/30 06:21:26;;;;;;;36.87;19.83;;;;;;;22.09;32.70;99051.72;4973372;28;20644;-74
2022/03/30 06:23:54;;;;;;;41.13;20.90;;;;;;;22.21;32.26;99046.00;4972685;28;20290;-74
2022/03/30 06:26:21;;;;;;;51.30;23.27;;;;;;;22.09;32.02;99050.94;4973222;28;20199;-74
2022/03/30 06:28:49;;;;;;;48.27;23.60;;;;;;;21.81;33.02;99046.25;4972614;28;20195;-74
2022/03/30 06:31:17;;;;;;;76.23;24.93;;;;;;;21.76;33.08;99049.78;4972671;28;20195;-74
2022/03/30 06:33:44;;;;;;;49.73;23.30;;;;;;;21.83;32.63;99044.88;4979445;28;20293;-74
2022/03/30 06:36:11;;;;;;;58.00;22.33;;;;;;;21.67;33.13;99051.41;4987303;28;20628;-73
2022/03/30 06:38:37;;;;;;;39.40;20.03;;;;;;;22.14;32.71;99057.13;4972508;28;20235;-74
2022/03/30 06:41:07;;;;;;;44.47;20.70;;;;;;;22.43;31.97;99054.47;4982073;28;20199;-73
2022/03/30 06:43:34;;;;;;;44.03;20.73;;;;;;;22.25;32.00;99064.06;4992395;28;20226;-74
2022/03/30 06:46:00;;;;;;;42.83;21.47;;;;;;;21.83;32.60;99066.50;4995468;28;20195;-74
2022/03/30 06:48:27;;;;;;;41.77;18.13;;;;;;;22.36;33.15;99062.91;4995451;28;20245;-74
2022/03/30 06:50:54;;;;;;;32.30;16.23;;;;;;;23.11;33.94;99062.22;4976569;28;20250;-72
2022/03/30 06:53:20;;;;;;;28.90;14.07;;;;;;;23.62;33.27;99063.28;4976476;28;20223;-66
2022/03/30 06:55:48;;;;;;;31.90;16.20;;;;;;;24.22;31.57;99067.88;4975549;28;20552;-71
2022/03/30 06:58:16;;;;;;;34.57;17.57;;;;;;;24.68;29.94;99071.53;4976846;28;20219;-69
2022/03/30 07:00:43;;;;;;;26.57;15.23;;;;;;;25.14;28.57;99073.44;4976501;28;20201;-72
2022/03/30 07:03:10;;;;;;;26.30;13.17;;;;;;;25.57;30.77;99072.06;4973628;28;20739;-73
2022/03/30 07:05:38;;;;;;;33.53;14.23;;;;;;;25.45;29.94;99061.69;4979005;28;20755;-73
2022/03/30 07:10:49;;;;;;;33.20;15.27;;;;;;;25.98;27.43;99081.00;4974050;28;20230;-72
2022/03/30 07:13:17;;;;;;;28.13;15.30;;;;;;;26.10;26.35;99070.38;4974801;28;20192;-69
2022/03/30 07:15:44;;;;;;;31.23;15.83;;;;;;;25.80;27.00;99076.47;4974370;28;20265;-70
2022/03/30 07:18:13;;;;;;;33.57;16.93;;;;;;;25.86;26.20;99065.16;4974010;28;20199;-69
2022/03/30 07:20:40;;;;;;;28.90;16.70;;;;;;;25.42;27.17;99064.19;4974315;28;20236;-69
2022/03/30 07:23:10;;;;;;;26.87;15.60;;;;;;;25.20;27.20;99055.91;4983889;28;20227;-70
2022/03/30 07:25:38;;;;;;;33.57;15.20;;;;;;;25.38;27.77;99055.84;4982930;28;20887;-69
2022/03/30 07:28:05;;;;;;;28.20;13.97;;;;;;;25.80;27.47;99066.38;4977522;28;20226;-68
2022/03/30 07:30:34;;;;;;;22.60;15.83;;;;;;;25.99;26.27;99058.09;4975241;28;20221;-69
2022/03/30 07:33:01;;;;;;;26.77;14.83;;;;;;;26.18;26.17;99053.31;4985193;28;20662;-68
2022/03/30 07:35:32;;;;;;;53.83;17.00;;;;;;;26.34;26.43;99062.72;4995135;28;20191;-69
2022/03/30 07:37:59;;;;;;;30.67;16.17;;;;;;;26.22;25.53;99051.56;4994954;28;20558;-71
2022/03/30 07:40:27;;;;;;;36.80;17.27;;;;;;;26.29;25.70;99062.84;4988645;28;20199;-68
2022/03/30 07:42:54;;;;;;;30.07;13.20;;;;;;;26.25;26.54;99059.94;4975730;28;20593;-69
2022/03/30 07:45:21;;;;;;;28.20;15.03;;;;;;;26.36;27.10;99058.59;4975623;28;20192;-69
2022/03/30 07:47:50;;;;;;;47.33;18.93;;;;;;;26.18;25.44;99056.84;4975332;28;20199;-71
2022/03/30 07:50:16;;;;;;;28.40;14.40;;;;;;;26.20;26.73;99054.59;4993480;28;20195;-71
2022/03/30 07:52:44;;;;;;;23.03;13.77;;;;;;;26.24;26.84;99060.22;4994463;28;20673;-70
2022/03/30 07:55:12;;;;;;;31.77;14.47;;;;;;;26.38;26.99;99069.16;4994924;28;20226;-69
2022/03/30 07:57:42;;;;;;;29.43;14.87;;;;;;;26.49;26.27;99062.34;4994786;28;20347;-69
2022/03/30 08:00:11;;;;;;;24.87;12.87;;;;;;;26.70;25.78;99064.28;4994900;28;20230;-68
2022/03/30 08:02:38;;;;;;;24.57;14.30;;;;;;;26.86;25.01;99056.56;4994715;28;21121;-69
2022/03/30 08:05:10;;;;;;;23.27;11.67;;;;;;;26.67;26.63;99056.75;4994503;28;20728;-68
2022/03/30 08:07:37;;;;;;;13.40;11.70;;;;;;;26.90;25.78;99061.03;4995639;28;20187;-68
2022/03/30 08:10:04;;;;;;;28.03;12.80;;;;;;;27.16;25.67;99050.28;4994776;28;20308;-69
2022/03/30 08:12:31;;;;;;;20.10;11.40;;;;;;;27.35;25.32;99048.94;4994667;28;20257;-69
2022/03/30 08:14:58;;;;;;;23.77;12.00;;;;;;;27.41;25.41;99036.75;4994546;28;20713;-69
2022/03/30 08:17:25;;;;;;;22.40;12.80;;;;;;;27.63;25.25;99033.91;4994721;28;20203;-70
2022/03/30 08:19:52;;;;;;;19.73;11.37;;;;;;;27.70;24.41;99038.91;4994734;28;20230;-71
2022/03/30 08:22:28;;;;;;;17.83;11.93;;;;;;;27.62;24.54;99040.50;4994301;28;20659;-72
2022/03/30 08:24:56;;;;;;;18.10;11.60;;;;;;;27.53;24.50;99033.41;4994419;28;20187;-71
2022/03/30 08:27:25;;;;;;;21.10;11.47;;;;;;;27.77;24.67;99041.97;4993918;28;20549;-72
2022/03/30 08:29:54;;;;;;;15.57;10.00;;;;;;;27.70;24.81;99038.91;4993830;28;20276;-70
2022/03/30 08:32:22;;;;;;;16.23;10.80;;;;;;;27.68;25.82;99038.44;4993572;28;20199;-71
2022/03/30 08:34:49;;;;;;;12.37;9.83;;;;;;;27.70;24.67;99044.38;4993762;28;20194;-71
2022/03/30 08:37:17;;;;;;;13.07;11.23;;;;;;;27.85;24.24;99030.31;4994169;28;20585;-69
2022/03/30 08:39:45;;;;;;;19.17;9.53;;;;;;;28.09;25.04;99030.66;4992768;28;20365;-71
2022/03/30 08:42:14;;;;;;;16.07;10.37;;;;;;;27.98;23.94;99034.81;4974580;28;20623;-69
2022/03/30 08:44:42;;;;;;;21.73;11.53;;;;;;;27.25;24.71;99026.59;4983246;28;20194;-70
2022/03/30 08:47:09;;;;;;;14.57;10.03;;;;;;;27.11;25.38;99014.97;4994017;28;20208;-69
2022/03/30 08:49:37;;;;;;;24.20;11.70;;;;;;;27.23;24.28;99018.72;4997407;28;20204;-69
2022/03/30 08:52:06;;;;;;;19.73;11.20;;;;;;;27.28;23.95;99010.38;5013979;28;20204;-70
2022/03/30 08:54:33;;;;;;;16.17;11.20;;;;;;;26.89;24.04;99012.28;5013025;28;20689;-70
2022/03/30 08:57:01;;;;;;;20.30;9.63;;;;;;;26.82;24.68;99009.22;5013203;28;20671;-71
2022/03/30 08:59:28;;;;;;;14.30;9.63;;;;;;;27.10;25.18;99005.97;5010343;28;20829;-73
2022/03/30 09:01:58;;;;;;;15.07;9.60;;;;;;;27.37;24.71;98994.88;5009910;28;20190;-73
2022/03/30 09:04:26;;;;;;;20.43;10.20;;;;;;;26.79;24.91;98986.09;5008560;28;20926;-74
2022/03/30 09:06:57;;;;;;;19.47;10.37;;;;;;;27.08;24.58;98991.03;5008671;28;20198;-73
2022/03/30 09:09:31;;;;;;;13.27;8.80;;;;;;;27.40;24.78;98980.56;5009527;28;20232;-71
2022/03/30 09:12:01;;;;;;;11.20;8.70;;;;;;;27.53;24.46;98978.84;5008214;28;20185;-71
2022/03/30 09:14:31;;;;;;;10.43;8.97;;;;;;;27.74;24.81;98979.81;5010069;28;20198;-72
2022/03/30 09:17:00;;;;;;;20.47;9.77;;;;;;;27.94;23.96;98980.03;5009921;28;20202;-71
2022/03/30 09:19:28;;;;;;;14.57;9.03;;;;;;;27.94;24.26;98971.03;5008791;28;20263;-71
2022/03/30 09:21:57;;;;;;;11.03;8.30;;;;;;;28.10;24.44;98974.88;5010445;28;20198;-71
2022/03/30 09:24:25;;;;;;;11.67;9.23;;;;;;;27.93;23.60;98966.69;5009384;28;20241;-72
2022/03/30 09:26:54;;;;;;;16.10;8.97;;;;;;;27.53;24.20;98936.00;5010343;28;20194;-69
2022/03/30 09:29:23;;;;;;;18.60;9.10;;;;;;;27.49;23.89;98950.59;5010759;28;20206;-71
2022/03/30 09:31:51;;;;;;;11.73;8.23;;;;;;;27.27;24.85;98958.91;5009481;28;20729;-72
2022/03/30 09:34:18;;;;;;;11.77;8.73;;;;;;;27.06;25.48;98936.00;4991506;28;20232;-71
2022/03/30 09:36:46;;;;;;;15.00;7.80;;;;;;;27.39;25.27;98940.78;4991020;28;20191;-72
2022/03/30 09:39:31;;;;;;;19.63;15.57;;;;;;;27.23;24.60;98925.19;4990037;28;20618;-74
2022/03/30 09:41:59;;;;;;;10.90;9.77;;;;;;;27.22;24.50;98931.75;4972083;28;20257;-70
2022/03/30 09:44:29;;;;;;;17.67;9.30;;;;;;;27.25;24.59;98926.47;4971918;28;20224;-70
2022/03/30 09:46:58;;;;;;;14.33;9.87;;;;;;;27.24;24.65;98921.34;4975956;28;20224;-71
2022/03/30 09:49:33;;;;;;;15.83;8.90;;;;;;;26.79;25.15;98909.00;4990702;28;20233;-69
2022/03/30 09:51:59;;;;;;;13.57;8.80;;;;;;;26.81;24.95;98904.03;4990671;28;20209;-70
2022/03/30 09:54:40;;;;;;;14.70;10.17;;;;;;;26.33;25.13;98903.94;4990634;28;20207;-73
2022/03/30 09:57:14;;;;;;;10.80;8.50;;;;;;;26.62;26.83;98900.75;4990737;28;20204;-70
2022/03/30 10:00:05;;;;;;;10.67;9.07;;;;;;;26.90;25.13;98904.88;4991755;28;20191;-71
2022/03/30 10:02:33;;;;;;;9.93;8.93;;;;;;;27.16;25.98;98903.00;4990305;28;20190;-69
2022/03/30 10:05:00;;;;;;;10.57;8.57;;;;;;;27.17;25.18;98888.25;4990369;28;20601;-69
2022/03/30 10:07:28;;;;;;;13.27;9.53;;;;;;;27.36;25.16;98888.78;4990782;28;20212;-69
2022/03/30 10:09:56;;;;;;;9.87;8.97;;;;;;;27.31;24.35;98872.59;4988751;28;20226;-71
2022/03/30 10:12:23;;;;;;;17.27;9.63;;;;;;;27.30;24.33;98881.88;4980059;28;20202;-70
2022/03/30 10:14:51;;;;;;;17.43;8.87;;;;;;;27.13;24.19;98879.09;4972919;28;20215;-72
2022/03/30 10:17:20;;;;;;;17.37;9.50;;;;;;;26.57;25.35;98865.44;4970441;28;20738;-72
2022/03/30 10:19:49;;;;;;;12.40;9.47;;;;;;;26.47;23.72;98869.25;4971511;28;20191;-70
2022/03/30 10:22:30;;;;;;;13.87;8.70;;;;;;;26.50;25.20;98873.28;4970655;28;20290;-71
2022/03/30 10:25:10;;;;;;;14.17;8.33;;;;;;;26.79;24.96;98882.53;4971038;28;20227;-69
2022/03/30 10:27:46;;;;;;;10.40;8.43;;;;;;;27.00;24.27;98877.31;4981109;28;20642;-70
2022/03/30 10:30:14;;;;;;;12.20;9.60;;;;;;;27.31;23.94;98888.94;4989361;28;20241;-71
2022/03/30 10:32:42;;;;;;;9.50;8.40;;;;;;;27.36;23.26;98892.28;4989474;28;20191;-69
2022/03/30 10:35:11;;;;;;;10.53;8.23;;;;;;;27.67;23.84;98873.84;4981615;28;20203;-70
2022/03/30 10:37:40;;;;;;;10.30;8.37;;;;;;;27.87;23.20;98875.16;4984592;28;20190;-69
2022/03/30 10:40:15;;;;;;;14.27;9.17;;;;;;;28.16;22.33;98867.06;4976642;28;20206;-70
2022/03/30 10:43:06;;;;;;;13.17;8.87;;;;;;;28.21;22.67;98864.94;4971013;28;20187;-72
2022/03/30 10:45:58;;;;;;;9.23;8.30;;;;;;;27.81;22.92;98854.56;4970250;28;20192;-69
2022/03/30 10:48:38;;;;;;;12.10;8.67;;;;;;;27.72;23.53;98846.38;4997429;28;20201;-69
2022/03/30 10:51:19;;;;;;;10.63;7.73;;;;;;;27.65;23.54;98845.28;5010158;28;20197;-68
2022/03/30 10:53:50;;;;;;;11.43;8.60;;;;;;;27.48;23.59;98834.38;4970801;28;20254;-72
2022/03/30 10:56:32;;;;;;;16.53;9.50;;;;;;;27.28;23.66;98840.47;4973603;28;20195;-71
2022/03/30 10:59:13;;;;;;;13.60;8.43;;;;;;;27.16;24.17;98826.63;4989592;28;20202;-69
2022/03/30 11:01:41;;;;;;;14.20;7.43;;;;;;;27.06;24.38;98827.75;4990279;28;20193;-69
2022/03/30 11:04:25;;;;;;;10.53;8.83;;;;;;;26.94;23.69;98808.50;4990407;28;20253;-69
2022/03/30 11:07:38;;;;;;;10.37;8.53;;;;;;;26.78;24.06;98799.16;4988937;28;20198;-69
2022/03/30 11:10:27;;;;;;;10.73;9.57;;;;;;;26.69;23.96;98800.25;4976356;28;20223;-67
2022/03/30 11:12:59;;;;;;;12.10;9.83;;;;;;;26.61;24.06;98798.31;4971775;28;20187;-68
2022/03/30 11:15:27;;;;;;;14.57;9.40;;;;;;;26.58;24.13;98798.97;4971405;28;20199;-68
2022/03/30 11:20:40;;;;;;;12.33;8.30;;;;;;;26.64;24.70;98784.06;4967948;28;20203;-67
2022/03/30 11:23:21;;;;;;;11.17;9.30;;;;;;;26.20;24.48;98765.16;4971866;28;20195;-67
2022/03/30 11:25:52;;;;;;;13.07;8.67;;;;;;;26.05;24.28;98769.09;4971739;28;20198;-68
2022/03/30 11:28:19;;;;;;;9.57;8.57;;;;;;;26.21;25.31;98750.44;4970402;28;20208;-69
2022/03/30 11:30:48;;;;;;;9.97;8.93;;;;;;;26.38;24.67;98761.38;4976943;28;20194;-68
2022/03/30 11:33:22;;;;;;;11.03;8.67;;;;;;;26.60;24.19;98742.22;4993805;28;20199;-68
2022/03/30 11:35:52;;;;;;;10.73;9.50;;;;;;;26.70;24.35;98745.44;4993553;28;20190;-70
2022/03/30 11:38:23;;;;;;;9.70;8.80;;;;;;;26.63;24.14;98731.50;4993905;28;20253;-67